createdAt,value
2023-05-08T00:00:19.457Z,87.29
2023-05-08T00:00:57.048Z,87.40
2023-05-08T00:01:33.104Z,87.01
2023-05-08T00:02:04.887Z,86.93
2023-05-08T00:02:36.545Z,86.92
2023-05-08T00:03:08.328Z,86.81
2023-05-08T00:03:40.210Z,86.70
2023-05-08T00:04:12.296Z,86.64
2023-05-08T00:04:44.049Z,86.63
2023-05-08T00:05:15.980Z,86.61
2023-05-08T00:05:47.595Z,86.74
2023-05-08T00:06:19.368Z,86.79
2023-05-08T00:06:53.057Z,86.73
2023-05-08T00:07:24.695Z,86.92
2023-05-08T00:08:01.394Z,86.79
2023-05-08T00:08:33.261Z,86.76
2023-05-08T00:09:04.916Z,86.68
2023-05-08T00:09:37.619Z,86.59
2023-05-08T00:10:10.472Z,86.59
2023-05-08T00:10:42.237Z,86.60
2023-05-08T00:11:14.193Z,86.17
2023-05-08T00:11:45.967Z,86.05
2023-05-08T00:12:17.643Z,86.18
2023-05-08T00:12:49.276Z,86.35
2023-05-08T00:13:21.171Z,86.53
2023-05-08T00:13:52.995Z,86.51
2023-05-08T00:14:24.653Z,86.68
2023-05-08T00:14:56.539Z,86.83
2023-05-08T00:15:28.158Z,86.75
2023-05-08T00:15:59.880Z,86.85
2023-05-08T00:16:32.707Z,86.88
2023-05-08T00:17:04.478Z,86.88
2023-05-08T00:17:36.296Z,87.11
2023-05-08T00:18:08.064Z,87.63
2023-05-08T00:18:40.079Z,87.52
2023-05-08T00:19:11.700Z,87.32
2023-05-08T00:19:43.345Z,87.83
2023-05-08T00:20:15.366Z,87.71
2023-05-08T00:20:47.184Z,87.70
2023-05-08T00:21:18.824Z,88.00
2023-05-08T00:21:50.421Z,88.15
2023-05-08T00:22:22.367Z,88.47
2023-05-08T00:22:53.961Z,88.65
2023-05-08T00:23:25.612Z,88.41
2023-05-08T00:23:57.294Z,89.07
2023-05-08T00:24:28.868Z,88.97
2023-05-08T00:25:00.481Z,89.16
2023-05-08T00:25:32.152Z,89.40
2023-05-08T00:26:04.234Z,89.64
2023-05-08T00:26:35.848Z,89.90
2023-05-08T00:27:08.366Z,89.85
2023-05-08T00:27:40.000Z,89.64
2023-05-08T00:28:11.592Z,89.52
2023-05-08T00:28:43.170Z,89.14
2023-05-08T00:29:14.810Z,89.13
2023-05-08T00:29:48.216Z,89.40
2023-05-08T00:30:20.057Z,89.14
2023-05-08T00:30:52.393Z,89.13
2023-05-08T00:31:24.257Z,89.05
2023-05-08T00:31:56.442Z,89.03
2023-05-08T00:32:28.952Z,89.07
2023-05-08T00:33:00.698Z,90.28
2023-05-08T00:33:32.407Z,90.34
2023-05-08T00:34:04.031Z,90.08
2023-05-08T00:34:35.775Z,90.54
2023-05-08T00:35:07.783Z,90.31
2023-05-08T00:35:41.673Z,89.91
2023-05-08T00:36:15.743Z,89.56
2023-05-08T00:36:47.525Z,90.24
2023-05-08T00:37:19.129Z,90.47
2023-05-08T00:37:50.799Z,90.37
2023-05-08T00:38:22.491Z,90.48
2023-05-08T00:38:54.580Z,90.79
2023-05-08T00:39:26.225Z,90.53
2023-05-08T00:39:57.841Z,90.40
2023-05-08T00:40:29.495Z,90.24
2023-05-08T00:41:01.851Z,90.31
2023-05-08T00:41:33.442Z,90.39
2023-05-08T00:42:05.057Z,90.45
2023-05-08T00:42:36.942Z,90.89
2023-05-08T00:43:08.555Z,90.62
2023-05-08T00:43:40.386Z,90.67
2023-05-08T00:44:12.182Z,91.00
2023-05-08T00:44:43.833Z,91.50
2023-05-08T00:45:15.494Z,91.42
2023-05-08T00:45:47.289Z,91.17
2023-05-08T00:46:19.029Z,91.11
2023-05-08T00:46:52.041Z,91.10
2023-05-08T00:47:23.687Z,91.61
2023-05-08T00:47:55.686Z,91.61
2023-05-08T00:48:34.103Z,91.64
2023-05-08T00:49:06.038Z,91.56
2023-05-08T00:49:38.716Z,91.33
2023-05-08T00:50:10.936Z,91.19
2023-05-08T00:50:42.613Z,91.26
2023-05-08T00:51:16.313Z,91.29
2023-05-08T00:51:51.926Z,91.39
2023-05-08T00:52:23.698Z,91.36
2023-05-08T00:52:56.857Z,91.75
2023-05-08T00:53:32.079Z,92.55
2023-05-08T00:54:04.193Z,92.81
2023-05-08T00:54:38.188Z,92.95
2023-05-08T00:55:10.065Z,92.52
2023-05-08T00:55:41.963Z,91.88
2023-05-08T00:56:15.538Z,91.39
2023-05-08T00:56:47.480Z,91.44
2023-05-08T00:57:19.427Z,91.41
2023-05-08T00:57:52.850Z,91.38
2023-05-08T00:58:27.165Z,91.54
2023-05-08T00:58:59.171Z,91.58
2023-05-08T00:59:30.954Z,91.95
2023-05-08T01:00:04.440Z,91.74
2023-05-08T01:00:37.537Z,91.83
2023-05-08T01:01:09.349Z,91.65
2023-05-08T01:01:41.917Z,92.01
2023-05-08T01:02:14.163Z,92.10
2023-05-08T01:02:46.904Z,92.43
2023-05-08T01:03:18.800Z,92.45
2023-05-08T01:03:51.047Z,92.30
2023-05-08T01:04:25.449Z,91.86
2023-05-08T01:04:57.415Z,91.70
2023-05-08T01:05:29.135Z,91.34
2023-05-08T01:06:02.056Z,91.06
2023-05-08T01:06:37.328Z,90.97
2023-05-08T01:07:08.950Z,90.85
2023-05-08T01:07:40.576Z,90.87
2023-05-08T01:08:12.183Z,90.81
2023-05-08T01:08:46.061Z,90.70
2023-05-08T01:09:18.246Z,90.67
2023-05-08T01:09:49.966Z,90.65
2023-05-08T01:10:21.739Z,90.72
2023-05-08T01:11:12.178Z,90.84
2023-05-08T01:12:01.654Z,91.28
2023-05-08T01:12:48.559Z,90.94
2023-05-08T01:13:46.064Z,90.44
2023-05-08T01:14:24.601Z,90.51
2023-05-08T01:15:17.007Z,90.57
2023-05-08T01:15:54.807Z,90.56
2023-05-08T01:16:46.249Z,91.02
2023-05-08T01:17:27.420Z,91.75
2023-05-08T01:18:23.285Z,91.48
2023-05-08T01:19:23.289Z,91.51
2023-05-08T01:20:07.179Z,92.02
2023-05-08T01:21:01.323Z,91.79
2023-05-08T01:21:43.175Z,91.82
2023-05-08T01:22:14.779Z,91.97
2023-05-08T01:23:04.814Z,91.90
2023-05-08T01:24:30.897Z,92.48
2023-05-08T01:25:10.903Z,92.49
2023-05-08T01:25:54.364Z,92.33
2023-05-08T01:26:28.760Z,92.48
2023-05-08T01:27:25.260Z,92.44
2023-05-08T01:28:19.867Z,92.03
2023-05-08T01:29:09.861Z,92.39
2023-05-08T01:29:50.517Z,92.11
2023-05-08T01:30:52.530Z,91.78
2023-05-08T01:31:54.825Z,92.10
2023-05-08T01:32:29.750Z,92.58
2023-05-08T01:33:33.624Z,92.60
2023-05-08T01:34:09.087Z,92.40
2023-05-08T01:35:11.092Z,92.59
2023-05-08T01:35:53.286Z,92.20
2023-05-08T01:36:53.896Z,91.82
2023-05-08T01:37:35.825Z,91.90
2023-05-08T01:38:14.390Z,91.74
2023-05-08T01:39:01.271Z,91.69
2023-05-08T01:39:57.022Z,92.26
2023-05-08T01:40:45.364Z,92.52
2023-05-08T01:41:25.594Z,93.13
2023-05-08T01:42:11.690Z,93.19
2023-05-08T01:42:49.283Z,93.33
2023-05-08T01:43:32.681Z,94.01
2023-05-08T01:44:13.881Z,93.74
2023-05-08T01:44:50.709Z,94.24
2023-05-08T01:45:38.442Z,93.73
2023-05-08T01:46:14.893Z,93.66
2023-05-08T01:46:49.924Z,93.67
2023-05-08T01:47:25.974Z,93.73
2023-05-08T01:48:09.267Z,93.99
2023-05-08T01:48:47.476Z,94.17
2023-05-08T01:49:30.616Z,94.26
2023-05-08T01:50:15.341Z,94.05
2023-05-08T01:50:49.451Z,93.92
2023-05-08T01:51:23.797Z,93.89
2023-05-08T01:52:03.822Z,94.30
2023-05-08T01:52:43.269Z,93.98
2023-05-08T01:53:38.015Z,93.98
2023-05-08T01:54:15.088Z,94.27
2023-05-08T01:55:11.311Z,94.65
2023-05-08T01:55:44.635Z,94.45
2023-05-08T01:56:22.237Z,94.42
2023-05-08T01:56:58.081Z,94.77
2023-05-08T01:57:32.721Z,94.71
2023-05-08T01:58:11.097Z,94.66
2023-05-08T01:58:43.867Z,95.08
2023-05-08T01:59:19.751Z,94.87
2023-05-08T01:59:53.524Z,95.53
2023-05-08T02:00:28.631Z,95.18
2023-05-08T02:01:02.397Z,94.85
2023-05-08T02:01:35.003Z,94.85
2023-05-08T02:02:07.315Z,94.46
2023-05-08T02:02:39.508Z,94.36
2023-05-08T02:03:14.213Z,94.66
2023-05-08T02:03:47.161Z,94.49
2023-05-08T02:04:20.091Z,94.38
2023-05-08T02:04:52.660Z,94.38
2023-05-08T02:05:25.674Z,94.92
2023-05-08T02:05:59.112Z,94.81
2023-05-08T02:06:32.454Z,94.87
2023-05-08T02:07:05.081Z,94.79
2023-05-08T02:07:40.458Z,94.88
2023-05-08T02:08:15.164Z,94.83
2023-05-08T02:08:47.448Z,94.86
2023-05-08T02:09:21.843Z,95.41
2023-05-08T02:09:54.790Z,95.46
2023-05-08T02:10:28.617Z,94.76
2023-05-08T02:11:01.770Z,94.62
2023-05-08T02:11:35.403Z,94.54
2023-05-08T02:12:08.418Z,94.53
2023-05-08T02:12:41.674Z,94.39
2023-05-08T02:13:14.646Z,94.19
2023-05-08T02:13:48.650Z,94.11
2023-05-08T02:14:21.588Z,94.47
2023-05-08T02:14:56.346Z,94.65
2023-05-08T02:15:30.485Z,95.01
2023-05-08T02:16:03.383Z,94.92
2023-05-08T02:16:37.400Z,94.57
2023-05-08T02:17:11.535Z,94.48
2023-05-08T02:17:46.577Z,94.49
2023-05-08T02:18:22.278Z,94.54
2023-05-08T02:18:56.375Z,94.51
2023-05-08T02:19:29.198Z,94.37
2023-05-08T02:20:03.616Z,94.42
2023-05-08T02:20:36.673Z,94.16
2023-05-08T02:21:11.291Z,94.23
2023-05-08T02:21:44.809Z,94.33
2023-05-08T02:22:18.242Z,94.21
2023-05-08T02:22:51.646Z,94.34
2023-05-08T02:23:26.643Z,94.54
2023-05-08T02:23:59.430Z,94.93
2023-05-08T02:24:34.196Z,94.81
2023-05-08T02:25:07.020Z,94.71
2023-05-08T02:25:39.551Z,94.74
2023-05-08T02:26:13.834Z,94.81
2023-05-08T02:26:47.677Z,95.41
2023-05-08T02:27:22.197Z,95.58
2023-05-08T02:27:55.393Z,95.38
2023-05-08T02:28:29.627Z,95.26
2023-05-08T02:29:03.206Z,95.70
2023-05-08T02:29:36.304Z,95.61
2023-05-08T02:30:08.742Z,95.76
2023-05-08T02:30:42.886Z,95.89
2023-05-08T02:31:14.713Z,95.98
2023-05-08T02:31:47.427Z,95.91
2023-05-08T02:32:21.248Z,95.43
2023-05-08T02:32:55.039Z,95.14
2023-05-08T02:33:27.888Z,95.23
2023-05-08T02:34:00.927Z,95.53
2023-05-08T02:34:32.925Z,95.82
2023-05-08T02:35:05.677Z,96.13
2023-05-08T02:35:39.151Z,95.88
2023-05-08T02:36:16.704Z,96.08
2023-05-08T02:36:50.909Z,96.04
2023-05-08T02:37:24.347Z,95.89
2023-05-08T02:37:57.458Z,95.59
2023-05-08T02:38:30.462Z,96.00
2023-05-08T02:39:03.812Z,96.06
2023-05-08T02:39:37.620Z,95.92
2023-05-08T02:40:11.999Z,96.13
2023-05-08T02:40:48.453Z,96.50
2023-05-08T02:41:23.066Z,96.22
2023-05-08T02:41:54.792Z,96.17
2023-05-08T02:42:26.633Z,96.23
2023-05-08T02:42:58.302Z,95.77
2023-05-08T02:43:30.150Z,95.89
2023-05-08T02:44:02.371Z,96.15
2023-05-08T02:44:34.114Z,95.92
2023-05-08T02:45:06.874Z,95.89
2023-05-08T02:46:18.277Z,95.67
2023-05-08T02:46:57.094Z,95.78
2023-05-08T02:47:39.476Z,95.80
2023-05-08T02:48:25.690Z,95.78
2023-05-08T02:49:03.576Z,96.18
2023-05-08T02:49:48.702Z,96.05
2023-05-08T02:50:29.509Z,96.16
2023-05-08T02:51:10.856Z,95.95
2023-05-08T02:51:55.904Z,96.05
2023-05-08T02:52:30.040Z,96.43
2023-05-08T02:53:09.681Z,96.59
2023-05-08T02:53:56.619Z,96.49
2023-05-08T02:54:37.320Z,96.17
2023-05-08T02:55:36.386Z,95.84
2023-05-08T02:56:11.416Z,95.83
2023-05-08T02:56:56.002Z,95.59
2023-05-08T02:57:43.061Z,95.56
2023-05-08T02:58:24.191Z,95.90
2023-05-08T02:59:04.275Z,96.10
2023-05-08T02:59:45.502Z,95.86
2023-05-08T03:00:22.466Z,95.78
2023-05-08T03:01:06.734Z,95.84
2023-05-08T03:01:46.057Z,95.79
2023-05-08T03:02:25.782Z,95.79
2023-05-08T03:03:08.433Z,95.80
2023-05-08T03:03:46.506Z,95.88
2023-05-08T03:04:25.705Z,96.12
2023-05-08T03:05:03.453Z,95.73
2023-05-08T03:05:37.226Z,95.63
2023-05-08T03:06:13.406Z,95.47
2023-05-08T03:06:47.909Z,95.54
2023-05-08T03:07:26.142Z,95.50
2023-05-08T03:08:00.812Z,95.78
2023-05-08T03:08:35.265Z,96.57
2023-05-08T03:09:11.299Z,96.46
2023-05-08T03:09:49.088Z,96.40
2023-05-08T03:10:28.289Z,96.02
2023-05-08T03:11:05.737Z,95.66
2023-05-08T03:11:41.037Z,95.86
2023-05-08T03:12:20.757Z,95.59
2023-05-08T03:12:55.670Z,95.34
2023-05-08T03:13:34.487Z,95.26
2023-05-08T03:14:11.782Z,95.14
2023-05-08T03:14:51.417Z,94.92
2023-05-08T03:15:31.865Z,95.47
2023-05-08T03:16:05.782Z,95.48
2023-05-08T03:16:40.215Z,95.38
2023-05-08T03:17:15.266Z,95.51
2023-05-08T03:17:50.314Z,95.67
2023-05-08T03:18:26.316Z,95.28
2023-05-08T03:19:01.662Z,95.32
2023-05-08T03:19:37.710Z,95.45
2023-05-08T03:20:14.817Z,95.88
2023-05-08T03:20:49.868Z,96.31
2023-05-08T03:21:24.278Z,96.55
2023-05-08T03:21:57.158Z,96.60
2023-05-08T03:22:31.279Z,96.30
2023-05-08T03:23:04.732Z,96.57
2023-05-08T03:23:39.130Z,97.05
2023-05-08T03:24:12.259Z,97.39
2023-05-08T03:24:45.971Z,97.12
2023-05-08T03:25:19.747Z,97.05
2023-05-08T03:25:52.862Z,96.80
2023-05-08T03:26:24.799Z,96.97
2023-05-08T03:26:57.046Z,96.88
2023-05-08T03:27:30.621Z,96.49
2023-05-08T03:28:04.903Z,96.28
2023-05-08T03:28:37.946Z,96.29
2023-05-08T03:29:10.514Z,96.10
2023-05-08T03:29:43.987Z,96.07
2023-05-08T03:30:17.436Z,96.07
2023-05-08T03:30:51.046Z,96.26
2023-05-08T03:31:23.740Z,96.33
2023-05-08T03:31:58.639Z,96.12
2023-05-08T03:32:33.307Z,96.27
2023-05-08T03:33:07.492Z,96.09
2023-05-08T03:33:40.881Z,95.97
2023-05-08T03:34:13.682Z,96.07
2023-05-08T03:34:45.453Z,95.91
2023-05-08T03:35:18.405Z,95.79
2023-05-08T03:35:51.216Z,95.83
2023-05-08T03:36:25.013Z,95.75
2023-05-08T03:36:56.975Z,95.59
2023-05-08T03:37:28.889Z,95.49
2023-05-08T03:38:00.972Z,95.46
2023-05-08T03:38:32.674Z,95.37
2023-05-08T03:39:04.469Z,95.32
2023-05-08T03:39:36.472Z,95.41
2023-05-08T03:40:08.921Z,95.77
2023-05-08T03:40:42.624Z,96.13
2023-05-08T03:41:14.598Z,96.38
2023-05-08T03:41:46.430Z,96.54
2023-05-08T03:42:21.548Z,97.39
2023-05-08T03:42:53.355Z,97.53
2023-05-08T03:43:25.699Z,96.95
2023-05-08T03:43:58.247Z,96.92
2023-05-08T03:44:30.286Z,96.79
2023-05-08T03:45:03.334Z,96.96
2023-05-08T03:45:39.708Z,97.39
2023-05-08T03:46:12.318Z,97.25
2023-05-08T03:46:45.151Z,97.07
2023-05-08T03:47:18.379Z,96.77
2023-05-08T03:47:53.847Z,96.57
2023-05-08T03:48:27.526Z,96.20
2023-05-08T03:49:02.329Z,96.16
2023-05-08T03:49:35.117Z,96.24
2023-05-08T03:50:09.575Z,96.22
2023-05-08T03:50:41.925Z,96.37
2023-05-08T03:51:13.978Z,96.35
2023-05-08T03:51:46.072Z,96.37
2023-05-08T03:52:17.734Z,96.41
2023-05-08T03:52:50.595Z,96.25
2023-05-08T03:53:22.341Z,96.24
2023-05-08T03:53:54.040Z,96.16
2023-05-08T03:54:25.739Z,96.01
2023-05-08T03:54:57.371Z,96.00
2023-05-08T03:55:30.753Z,96.04
2023-05-08T03:56:02.890Z,96.37
2023-05-08T03:56:34.870Z,96.34
2023-05-08T03:57:06.763Z,96.00
2023-05-08T03:57:50.687Z,95.95
2023-05-08T03:58:33.084Z,95.61
2023-05-08T03:59:33.807Z,95.69
2023-05-08T04:00:17.140Z,95.85
2023-05-08T04:01:07.529Z,96.03
2023-05-08T04:01:43.448Z,95.95
2023-05-08T04:02:42.966Z,95.79
2023-05-08T04:03:25.351Z,96.05
2023-05-08T04:04:19.874Z,95.75
2023-05-08T04:04:59.922Z,95.84
2023-05-08T04:05:47.287Z,96.28
2023-05-08T04:06:57.089Z,95.92
2023-05-08T04:07:42.971Z,96.12
2023-05-08T04:08:22.802Z,96.06
2023-05-08T04:09:04.614Z,96.26
2023-05-08T04:09:43.349Z,96.47
2023-05-08T04:10:29.147Z,96.41
2023-05-08T04:11:17.492Z,96.51
2023-05-08T04:12:02.242Z,96.68
2023-05-08T04:12:45.428Z,96.28
2023-05-08T04:13:25.733Z,96.07
2023-05-08T04:14:02.216Z,96.00
2023-05-08T04:14:43.621Z,95.85
2023-05-08T04:15:22.129Z,96.24
2023-05-08T04:16:07.403Z,96.04
2023-05-08T04:16:44.725Z,95.95
2023-05-08T04:17:42.129Z,95.70
2023-05-08T04:18:19.071Z,95.30
2023-05-08T04:18:54.389Z,95.60
2023-05-08T04:19:32.991Z,95.60
2023-05-08T04:20:07.211Z,95.71
2023-05-08T04:20:46.199Z,95.53
2023-05-08T04:21:25.114Z,95.41
2023-05-08T04:22:01.664Z,95.41
2023-05-08T04:22:34.760Z,95.43
2023-05-08T04:23:07.610Z,95.11
2023-05-08T04:23:41.586Z,95.05
2023-05-08T04:24:16.598Z,95.12
2023-05-08T04:24:50.223Z,95.09
2023-05-08T04:25:22.449Z,95.20
2023-05-08T04:25:55.988Z,95.46
2023-05-08T04:26:29.545Z,95.15
2023-05-08T04:27:02.911Z,95.63
2023-05-08T04:27:35.591Z,95.59
2023-05-08T04:28:07.748Z,95.43
2023-05-08T04:28:40.019Z,95.30
2023-05-08T04:29:11.864Z,95.04
2023-05-08T04:29:43.753Z,94.89
2023-05-08T04:30:15.930Z,94.81
2023-05-08T04:30:47.654Z,95.08
2023-05-08T04:31:19.964Z,94.96
2023-05-08T04:31:51.978Z,95.03
2023-05-08T04:32:24.385Z,95.13
2023-05-08T04:32:56.763Z,95.15
2023-05-08T04:33:29.466Z,94.70
2023-05-08T04:34:02.899Z,94.88
2023-05-08T04:34:35.336Z,95.73
2023-05-08T04:35:08.007Z,96.07
2023-05-08T04:35:39.638Z,96.43
2023-05-08T04:36:13.592Z,95.92
2023-05-08T04:36:45.306Z,95.75
2023-05-08T04:37:27.729Z,95.76
2023-05-08T04:37:59.964Z,96.75
2023-05-08T04:38:31.663Z,96.15
2023-05-08T04:39:03.708Z,94.92
2023-05-08T04:39:35.318Z,94.46
2023-05-08T04:40:07.895Z,94.41
2023-05-08T04:40:39.516Z,94.23
2023-05-08T04:41:11.325Z,94.96
2023-05-08T04:41:43.141Z,95.69
2023-05-08T04:42:14.759Z,95.10
2023-05-08T04:42:47.837Z,95.15
2023-05-08T04:43:19.620Z,95.54
2023-05-08T04:43:51.376Z,95.26
2023-05-08T04:44:22.954Z,94.57
2023-05-08T04:44:54.937Z,94.27
2023-05-08T04:45:26.935Z,94.55
2023-05-08T04:45:58.592Z,94.71
2023-05-08T04:46:30.260Z,94.78
2023-05-08T04:47:02.011Z,94.12
2023-05-08T04:47:33.630Z,93.81
2023-05-08T04:48:05.737Z,93.56
2023-05-08T04:48:37.809Z,93.58
2023-05-08T04:49:09.403Z,93.73
2023-05-08T04:49:41.152Z,93.75
2023-05-08T04:50:12.950Z,94.25
2023-05-08T04:50:44.565Z,94.43
2023-05-08T04:51:16.218Z,94.79
2023-05-08T04:51:47.835Z,94.54
2023-05-08T04:52:19.461Z,94.50
2023-05-08T04:52:51.076Z,93.49
2023-05-08T04:53:22.724Z,93.43
2023-05-08T04:53:54.284Z,93.34
2023-05-08T04:54:25.867Z,92.93
2023-05-08T04:54:57.541Z,92.84
2023-05-08T04:55:29.242Z,92.61
2023-05-08T04:56:00.890Z,92.61
2023-05-08T04:56:32.628Z,92.82
2023-05-08T04:57:04.492Z,92.35
2023-05-08T04:57:36.126Z,92.23
2023-05-08T04:58:07.819Z,92.40
2023-05-08T04:58:39.553Z,92.66
2023-05-08T04:59:12.234Z,92.59
2023-05-08T04:59:44.734Z,92.18
2023-05-08T05:00:16.635Z,92.64
2023-05-08T05:00:48.251Z,92.66
2023-05-08T05:01:19.867Z,92.79
2023-05-08T05:01:52.028Z,92.95
2023-05-08T05:02:26.172Z,92.71
2023-05-08T05:02:57.823Z,92.57
2023-05-08T05:03:29.542Z,92.53
2023-05-08T05:04:01.325Z,92.53
2023-05-08T05:04:32.998Z,92.64
2023-05-08T05:05:04.936Z,92.62
2023-05-08T05:05:38.809Z,92.57
2023-05-08T05:06:10.738Z,92.72
2023-05-08T05:06:42.372Z,92.42
2023-05-08T05:07:14.002Z,92.54
2023-05-08T05:07:45.597Z,92.58
2023-05-08T05:08:17.191Z,92.70
2023-05-08T05:08:48.822Z,92.43
2023-05-08T05:09:20.717Z,92.89
2023-05-08T05:09:52.338Z,92.70
2023-05-08T05:10:23.911Z,92.61
2023-05-08T05:10:55.650Z,92.52
2023-05-08T05:11:27.680Z,92.67
2023-05-08T05:11:59.360Z,92.96
2023-05-08T05:12:31.163Z,93.05
2023-05-08T05:13:02.816Z,92.65
2023-05-08T05:13:34.489Z,92.47
2023-05-08T05:14:07.264Z,92.64
2023-05-08T05:14:38.867Z,92.82
2023-05-08T05:15:11.086Z,92.32
2023-05-08T05:15:43.459Z,92.15
2023-05-08T05:16:15.163Z,92.20
2023-05-08T05:16:47.301Z,92.19
2023-05-08T05:17:18.877Z,92.03
2023-05-08T05:17:50.926Z,91.73
2023-05-08T05:18:22.647Z,91.84
2023-05-08T05:18:54.523Z,91.79
2023-05-08T05:19:27.261Z,91.80
2023-05-08T05:19:59.897Z,91.57
2023-05-08T05:20:31.958Z,91.85
2023-05-08T05:21:03.702Z,91.45
2023-05-08T05:21:37.780Z,92.19
2023-05-08T05:22:09.629Z,92.21
2023-05-08T05:22:41.273Z,92.01
2023-05-08T05:23:12.952Z,92.05
2023-05-08T05:23:44.720Z,91.83
2023-05-08T05:24:16.389Z,91.53
2023-05-08T05:24:48.049Z,91.24
2023-05-08T05:25:19.802Z,91.62
2023-05-08T05:25:51.414Z,91.89
2023-05-08T05:26:23.362Z,91.73
2023-05-08T05:26:54.948Z,91.96
2023-05-08T05:27:26.572Z,92.32
2023-05-08T05:27:58.226Z,92.10
2023-05-08T05:28:29.878Z,92.50
2023-05-08T05:29:01.545Z,92.36
2023-05-08T05:29:33.156Z,92.08
2023-05-08T05:30:05.475Z,91.87
2023-05-08T05:30:37.209Z,91.37
2023-05-08T05:31:08.850Z,91.41
2023-05-08T05:31:40.595Z,91.57
2023-05-08T05:32:12.234Z,91.75
2023-05-08T05:32:43.930Z,91.96
2023-05-08T05:33:15.619Z,92.16
2023-05-08T05:33:47.262Z,91.92
2023-05-08T05:34:19.035Z,92.02
2023-05-08T05:34:51.174Z,92.09
2023-05-08T05:35:25.486Z,92.01
2023-05-08T05:35:57.377Z,91.42
2023-05-08T05:36:29.510Z,91.58
2023-05-08T05:37:01.130Z,91.79
2023-05-08T05:37:32.764Z,92.28
2023-05-08T05:38:05.473Z,92.48
2023-05-08T05:38:37.091Z,92.67
2023-05-08T05:39:08.697Z,92.39
2023-05-08T05:39:40.356Z,92.71
2023-05-08T05:40:15.465Z,92.16
2023-05-08T05:40:47.063Z,92.00
2023-05-08T05:41:18.731Z,91.86
2023-05-08T05:41:50.345Z,92.26
2023-05-08T05:42:22.580Z,92.17
2023-05-08T05:42:54.194Z,92.24
2023-05-08T05:43:25.835Z,92.74
2023-05-08T05:43:57.510Z,92.32
2023-05-08T05:44:29.192Z,92.01
2023-05-08T05:45:02.042Z,91.61
2023-05-08T05:45:33.882Z,91.44
2023-05-08T05:46:09.902Z,91.53
2023-05-08T05:46:44.239Z,91.42
2023-05-08T05:47:16.324Z,91.34
2023-05-08T05:47:50.116Z,91.20
2023-05-08T05:48:22.228Z,91.31
2023-05-08T05:48:54.012Z,91.14
2023-05-08T05:49:25.596Z,91.06
2023-05-08T05:49:57.844Z,90.83
2023-05-08T05:50:29.467Z,91.38
2023-05-08T05:51:01.385Z,91.63
2023-05-08T05:51:33.049Z,91.43
2023-05-08T05:52:04.686Z,91.62
2023-05-08T05:52:36.318Z,91.74
2023-05-08T05:53:08.004Z,91.72
2023-05-08T05:53:39.604Z,91.67
2023-05-08T05:54:11.221Z,91.56
2023-05-08T05:54:42.880Z,91.85
2023-05-08T05:55:14.901Z,91.43
2023-05-08T05:55:46.691Z,91.88
2023-05-08T05:56:18.295Z,91.59
2023-05-08T05:56:49.992Z,91.92
2023-05-08T05:57:21.598Z,91.48
2023-05-08T05:57:53.193Z,91.30
2023-05-08T05:58:24.777Z,91.14
2023-05-08T05:58:56.489Z,90.97
2023-05-08T05:59:28.136Z,91.19
2023-05-08T06:00:00.108Z,91.32
2023-05-08T06:00:31.942Z,91.43
2023-05-08T06:01:03.750Z,91.06
2023-05-08T06:01:35.416Z,91.17
2023-05-08T06:02:10.589Z,91.89
2023-05-08T06:02:43.046Z,92.26
2023-05-08T06:03:14.876Z,91.67
2023-05-08T06:03:47.378Z,92.17
2023-05-08T06:04:19.267Z,91.77
2023-05-08T06:04:53.616Z,91.76
2023-05-08T06:05:25.371Z,91.54
2023-05-08T06:05:57.054Z,92.13
2023-05-08T06:06:29.354Z,92.33
2023-05-08T06:07:01.002Z,92.28
2023-05-08T06:07:32.612Z,91.44
2023-05-08T06:08:05.827Z,91.99
2023-05-08T06:08:37.405Z,91.31
2023-05-08T06:09:09.239Z,90.98
2023-05-08T06:09:41.196Z,90.94
2023-05-08T06:10:13.348Z,91.20
2023-05-08T06:10:45.061Z,90.62
2023-05-08T06:11:17.099Z,90.39
2023-05-08T06:11:48.796Z,90.34
2023-05-08T06:12:20.600Z,90.63
2023-05-08T06:12:52.518Z,90.45
2023-05-08T06:13:24.481Z,89.97
2023-05-08T06:13:56.228Z,89.64
2023-05-08T06:14:27.835Z,90.13
2023-05-08T06:14:59.502Z,89.96
2023-05-08T06:15:31.435Z,89.90
2023-05-08T06:16:03.506Z,89.37
2023-05-08T06:16:35.762Z,89.28
2023-05-08T06:17:07.532Z,89.72
2023-05-08T06:17:39.327Z,89.43
2023-05-08T06:18:11.149Z,89.03
2023-05-08T06:18:42.943Z,89.01
2023-05-08T06:19:14.619Z,88.90
2023-05-08T06:19:50.497Z,88.79
2023-05-08T06:20:23.499Z,88.53
2023-05-08T06:20:58.182Z,89.18
2023-05-08T06:21:29.887Z,88.80
2023-05-08T06:22:01.610Z,89.17
2023-05-08T06:22:33.255Z,88.47
2023-05-08T06:23:05.630Z,88.53
2023-05-08T06:23:37.471Z,88.42
2023-05-08T06:24:09.256Z,88.76
2023-05-08T06:24:40.818Z,88.60
2023-05-08T06:25:12.666Z,88.25
2023-05-08T06:25:44.609Z,87.49
2023-05-08T06:26:16.233Z,86.75
2023-05-08T06:26:47.896Z,86.79
2023-05-08T06:27:21.085Z,86.78
2023-05-08T06:27:52.686Z,87.04
2023-05-08T06:28:26.090Z,87.28
2023-05-08T06:28:57.717Z,87.36
2023-05-08T06:29:29.281Z,86.83
2023-05-08T06:30:01.134Z,87.06
2023-05-08T06:30:32.740Z,87.22
2023-05-08T06:31:04.511Z,87.02
2023-05-08T06:31:36.349Z,86.75
2023-05-08T06:32:08.077Z,85.97
2023-05-08T06:32:39.705Z,85.37
2023-05-08T06:33:11.455Z,84.20
2023-05-08T06:33:43.171Z,83.24
2023-05-08T06:34:14.801Z,83.38
2023-05-08T06:34:46.621Z,83.47
2023-05-08T06:35:19.422Z,83.43
2023-05-08T06:35:51.155Z,83.70
2023-05-08T06:36:22.767Z,83.90
2023-05-08T06:36:54.409Z,83.58
2023-05-08T06:37:27.899Z,83.41
2023-05-08T06:37:59.962Z,83.98
2023-05-08T06:38:31.785Z,83.93
2023-05-08T06:39:06.669Z,84.13
2023-05-08T06:39:38.492Z,83.69
2023-05-08T06:40:12.633Z,84.03
2023-05-08T06:40:45.833Z,84.14
2023-05-08T06:41:17.463Z,83.60
2023-05-08T06:41:49.291Z,83.61
2023-05-08T06:42:21.221Z,83.88
2023-05-08T06:42:52.865Z,84.70
2023-05-08T06:43:24.584Z,83.70
2023-05-08T06:43:56.160Z,83.45
2023-05-08T06:44:27.785Z,84.08
2023-05-08T06:44:59.351Z,83.66
2023-05-08T06:45:31.001Z,83.95
2023-05-08T06:46:02.656Z,83.76
2023-05-08T06:46:34.380Z,82.41
2023-05-08T06:47:06.758Z,82.83
2023-05-08T06:47:38.472Z,81.86
2023-05-08T06:48:10.225Z,81.78
2023-05-08T06:48:41.858Z,82.12
2023-05-08T06:49:13.540Z,82.98
2023-05-08T06:49:45.136Z,82.49
2023-05-08T06:50:16.716Z,83.08
2023-05-08T06:50:48.473Z,82.97
2023-05-08T06:51:23.208Z,84.98
2023-05-08T06:51:57.264Z,85.78
2023-05-08T06:52:29.507Z,85.83
2023-05-08T06:53:01.762Z,87.07
2023-05-08T06:53:33.405Z,86.41
2023-05-08T06:54:08.913Z,85.75
2023-05-08T06:54:42.167Z,85.19
2023-05-08T06:55:13.946Z,85.09
2023-05-08T06:55:45.801Z,84.37
2023-05-08T06:56:17.464Z,83.81
2023-05-08T06:56:49.058Z,83.93
2023-05-08T06:57:20.754Z,81.33
2023-05-08T06:57:52.479Z,80.83
2023-05-08T06:58:24.059Z,80.63
2023-05-08T06:59:04.854Z,80.17
2023-05-08T06:59:39.928Z,80.40
2023-05-08T07:00:12.569Z,80.12
2023-05-08T07:00:44.338Z,80.02
2023-05-08T07:01:16.172Z,80.48
2023-05-08T07:01:47.957Z,80.35
2023-05-08T07:02:20.275Z,78.87
2023-05-08T07:02:52.646Z,77.89
2023-05-08T07:03:24.830Z,77.73
2023-05-08T07:03:56.677Z,77.34
2023-05-08T07:04:30.752Z,76.77
2023-05-08T07:05:04.014Z,76.77
2023-05-08T07:05:36.302Z,77.60
2023-05-08T07:06:09.735Z,76.52
2023-05-08T07:06:41.316Z,77.30
2023-05-08T07:07:14.193Z,78.28
2023-05-08T07:07:46.285Z,78.36
2023-05-08T07:08:17.890Z,78.60
2023-05-08T07:08:50.934Z,78.69
2023-05-08T07:09:22.513Z,79.11
2023-05-08T07:09:54.108Z,78.97
2023-05-08T07:10:25.914Z,78.60
2023-05-08T07:10:57.534Z,79.29
2023-05-08T07:11:29.116Z,78.30
2023-05-08T07:12:01.113Z,78.33
2023-05-08T07:12:32.818Z,78.45
2023-05-08T07:13:04.603Z,79.41
2023-05-08T07:13:36.757Z,79.21
2023-05-08T07:14:08.829Z,78.24
2023-05-08T07:14:40.402Z,77.05
2023-05-08T07:15:24.797Z,78.02
2023-05-08T07:15:57.941Z,78.63
2023-05-08T07:16:29.655Z,77.79
2023-05-08T07:17:08.339Z,78.05
2023-05-08T07:17:39.957Z,79.82
2023-05-08T07:18:11.590Z,79.75
2023-05-08T07:18:43.902Z,78.69
2023-05-08T07:19:15.942Z,78.39
2023-05-08T07:19:51.339Z,79.70
2023-05-08T07:20:24.473Z,79.96
2023-05-08T07:20:56.283Z,79.43
2023-05-08T07:21:27.982Z,79.93
2023-05-08T07:22:00.958Z,79.73
2023-05-08T07:22:32.536Z,78.24
2023-05-08T07:23:04.181Z,75.34
2023-05-08T07:23:35.772Z,75.83
2023-05-08T07:24:07.997Z,75.57
2023-05-08T07:24:39.658Z,76.24
2023-05-08T07:25:11.334Z,76.52